sensor_id;sensor_type;location;lat;lon;timestamp;P1;durP1;ratioP1;P2;durP2;ratioP2
70199;SDS011;57587;55.688;37.600;2024-02-21T00:01:22;14.50;;;9.00;;
70199;SDS011;57587;55.688;37.600;2024-02-21T00:03:49;20.50;;;9.88;;
70199;SDS011;57587;55.688;37.600;2024-02-21T00:06:17;24.05;;;9.23;;
70199;SDS011;57587;55.688;37.600;2024-02-21T00:08:44;16.33;;;9.07;;
70199;SDS011;57587;55.688;37.600;2024-02-21T00:11:11;15.85;;;9.65;;
70199;SDS011;57587;55.688;37.600;2024-02-21T00:13:38;15.68;;;8.57;;
70199;SDS011;57587;55.688;37.600;2024-02-21T00:16:05;16.38;;;9.95;;
70199;SDS011;57587;55.688;37.600;2024-02-21T00:18:32;14.32;;;8.65;;
70199;SDS011;57587;55.688;37.600;2024-02-21T00:20:59;17.23;;;8.33;;
70199;SDS011;57587;55.688;37.600;2024-02-21T00:23:28;17.60;;;9.85;;
70199;SDS011;57587;55.688;37.600;2024-02-21T00:25:55;17.05;;;8.77;;
70199;SDS011;57587;55.688;37.600;2024-02-21T00:28:23;17.73;;;10.35;;
70199;SDS011;57587;55.688;37.600;2024-02-21T00:30:50;18.48;;;10.88;;
70199;SDS011;57587;55.688;37.600;2024-02-21T00:33:17;22.53;;;10.37;;
70199;SDS011;57587;55.688;37.600;2024-02-21T00:35:45;16.83;;;9.35;;
70199;SDS011;57587;55.688;37.600;2024-02-21T00:38:12;20.33;;;10.18;;
70199;SDS011;57587;55.688;37.600;2024-02-21T00:40:39;15.77;;;8.68;;
70199;SDS011;57587;55.688;37.600;2024-02-21T00:43:06;16.27;;;9.20;;
70199;SDS011;57587;55.688;37.600;2024-02-21T00:45:33;17.17;;;9.40;;
70199;SDS011;57587;55.688;37.600;2024-02-21T00:48:00;16.40;;;8.93;;
70199;SDS011;57587;55.688;37.600;2024-02-21T00:50:27;18.83;;;10.52;;
70199;SDS011;57587;55.688;37.600;2024-02-21T00:52:54;16.75;;;8.90;;
70199;SDS011;57587;55.688;37.600;2024-02-21T00:55:21;13.13;;;8.27;;
70199;SDS011;57587;55.688;37.600;2024-02-21T00:57:49;18.80;;;8.77;;
70199;SDS011;57587;55.688;37.600;2024-02-21T01:00:16;17.08;;;8.68;;
70199;SDS011;57587;55.688;37.600;2024-02-21T01:02:44;15.13;;;9.90;;
70199;SDS011;57587;55.688;37.600;2024-02-21T01:05:11;17.23;;;9.80;;
70199;SDS011;57587;55.688;37.600;2024-02-21T01:07:38;11.73;;;7.38;;
70199;SDS011;57587;55.688;37.600;2024-02-21T01:10:05;16.40;;;9.37;;
70199;SDS011;57587;55.688;37.600;2024-02-21T01:12:33;13.32;;;7.72;;
70199;SDS011;57587;55.688;37.600;2024-02-21T01:15:00;16.30;;;8.77;;
70199;SDS011;57587;55.688;37.600;2024-02-21T01:17:29;17.42;;;9.40;;
70199;SDS011;57587;55.688;37.600;2024-02-21T01:20:00;19.42;;;9.65;;
70199;SDS011;57587;55.688;37.600;2024-02-21T01:22:36;17.10;;;9.53;;
70199;SDS011;57587;55.688;37.600;2024-02-21T01:25:04;17.05;;;9.35;;
70199;SDS011;57587;55.688;37.600;2024-02-21T01:27:32;16.27;;;8.05;;
70199;SDS011;57587;55.688;37.600;2024-02-21T01:29:59;19.08;;;8.70;;
70199;SDS011;57587;55.688;37.600;2024-02-21T01:32:26;15.80;;;8.77;;
70199;SDS011;57587;55.688;37.600;2024-02-21T01:34:53;12.60;;;8.30;;
70199;SDS011;57587;55.688;37.600;2024-02-21T01:37:21;15.88;;;8.65;;
70199;SDS011;57587;55.688;37.600;2024-02-21T01:39:48;21.40;;;9.73;;
70199;SDS011;57587;55.688;37.600;2024-02-21T01:42:16;15.10;;;9.05;;
70199;SDS011;57587;55.688;37.600;2024-02-21T01:44:43;17.45;;;9.70;;
70199;SDS011;57587;55.688;37.600;2024-02-21T01:47:10;17.27;;;8.97;;
70199;SDS011;57587;55.688;37.600;2024-02-21T01:49:40;18.67;;;8.57;;
70199;SDS011;57587;55.688;37.600;2024-02-21T01:52:08;18.05;;;9.07;;
70199;SDS011;57587;55.688;37.600;2024-02-21T01:54:37;13.63;;;7.50;;
70199;SDS011;57587;55.688;37.600;2024-02-21T01:57:04;20.25;;;9.02;;
70199;SDS011;57587;55.688;37.600;2024-02-21T01:59:32;16.43;;;8.90;;
70199;SDS011;57587;55.688;37.600;2024-02-21T02:01:59;17.98;;;9.40;;
70199;SDS011;57587;55.688;37.600;2024-02-21T02:04:27;13.02;;;7.70;;
70199;SDS011;57587;55.688;37.600;2024-02-21T02:06:55;17.02;;;8.88;;
70199;SDS011;57587;55.688;37.600;2024-02-21T02:09:22;17.63;;;9.63;;
70199;SDS011;57587;55.688;37.600;2024-02-21T02:11:50;19.10;;;9.17;;
70199;SDS011;57587;55.688;37.600;2024-02-21T02:14:18;13.30;;;8.75;;
70199;SDS011;57587;55.688;37.600;2024-02-21T02:16:48;13.30;;;8.63;;
70199;SDS011;57587;55.688;37.600;2024-02-21T02:19:15;16.02;;;8.18;;
70199;SDS011;57587;55.688;37.600;2024-02-21T02:21:46;18.15;;;8.88;;
70199;SDS011;57587;55.688;37.600;2024-02-21T02:24:23;15.27;;;8.47;;
70199;SDS011;57587;55.688;37.600;2024-02-21T02:26:52;17.88;;;9.75;;
70199;SDS011;57587;55.688;37.600;2024-02-21T02:29:19;16.67;;;9.15;;
70199;SDS011;57587;55.688;37.600;2024-02-21T02:31:47;20.13;;;10.45;;
70199;SDS011;57587;55.688;37.600;2024-02-21T02:34:15;18.90;;;10.45;;
70199;SDS011;57587;55.688;37.600;2024-02-21T02:36:43;13.10;;;7.40;;
70199;SDS011;57587;55.688;37.600;2024-02-21T02:39:10;16.48;;;8.73;;
70199;SDS011;57587;55.688;37.600;2024-02-21T02:41:37;17.63;;;8.45;;
70199;SDS011;57587;55.688;37.600;2024-02-21T02:44:04;17.10;;;7.72;;
70199;SDS011;57587;55.688;37.600;2024-02-21T02:46:31;19.20;;;10.93;;
70199;SDS011;57587;55.688;37.600;2024-02-21T02:48:58;17.97;;;9.43;;
70199;SDS011;57587;55.688;37.600;2024-02-21T02:51:26;11.98;;;7.82;;
70199;SDS011;57587;55.688;37.600;2024-02-21T02:53:53;20.98;;;9.70;;
70199;SDS011;57587;55.688;37.600;2024-02-21T02:56:20;19.17;;;8.88;;
70199;SDS011;57587;55.688;37.600;2024-02-21T02:58:47;16.48;;;8.98;;
70199;SDS011;57587;55.688;37.600;2024-02-21T03:01:15;16.90;;;9.83;;
70199;SDS011;57587;55.688;37.600;2024-02-21T03:03:42;19.63;;;9.27;;
70199;SDS011;57587;55.688;37.600;2024-02-21T03:06:09;20.10;;;8.43;;
70199;SDS011;57587;55.688;37.600;2024-02-21T03:08:36;17.42;;;8.30;;
70199;SDS011;57587;55.688;37.600;2024-02-21T03:11:03;18.30;;;9.68;;
70199;SDS011;57587;55.688;37.600;2024-02-21T03:13:31;19.83;;;10.90;;
70199;SDS011;57587;55.688;37.600;2024-02-21T03:15:58;14.18;;;8.88;;
70199;SDS011;57587;55.688;37.600;2024-02-21T03:18:25;23.95;;;10.35;;
70199;SDS011;57587;55.688;37.600;2024-02-21T03:20:52;11.38;;;7.05;;
70199;SDS011;57587;55.688;37.600;2024-02-21T03:23:20;16.35;;;10.55;;
70199;SDS011;57587;55.688;37.600;2024-02-21T03:25:47;18.33;;;10.47;;
70199;SDS011;57587;55.688;37.600;2024-02-21T03:28:14;17.95;;;9.43;;
70199;SDS011;57587;55.688;37.600;2024-02-21T03:30:42;12.73;;;7.85;;
70199;SDS011;57587;55.688;37.600;2024-02-21T03:33:09;16.33;;;8.50;;
70199;SDS011;57587;55.688;37.600;2024-02-21T03:35:36;20.55;;;9.48;;
70199;SDS011;57587;55.688;37.600;2024-02-21T03:38:04;17.10;;;9.30;;
70199;SDS011;57587;55.688;37.600;2024-02-21T03:40:31;14.82;;;8.82;;
70199;SDS011;57587;55.688;37.600;2024-02-21T03:42:58;17.95;;;10.48;;
70199;SDS011;57587;55.688;37.600;2024-02-21T03:45:25;17.50;;;9.98;;
70199;SDS011;57587;55.688;37.600;2024-02-21T03:47:52;20.67;;;11.35;;
70199;SDS011;57587;55.688;37.600;2024-02-21T03:50:19;16.27;;;9.03;;
70199;SDS011;57587;55.688;37.600;2024-02-21T03:52:46;17.48;;;9.65;;
70199;SDS011;57587;55.688;37.600;2024-02-21T03:55:14;23.25;;;11.23;;
70199;SDS011;57587;55.688;37.600;2024-02-21T03:57:43;19.90;;;10.18;;
70199;SDS011;57587;55.688;37.600;2024-02-21T04:00:11;16.73;;;9.43;;
70199;SDS011;57587;55.688;37.600;2024-02-21T04:02:38;18.53;;;9.33;;
70199;SDS011;57587;55.688;37.600;2024-02-21T04:05:05;19.30;;;9.15;;
70199;SDS011;57587;55.688;37.600;2024-02-21T04:07:33;20.38;;;10.77;;
70199;SDS011;57587;55.688;37.600;2024-02-21T04:10:00;18.90;;;10.57;;
70199;SDS011;57587;55.688;37.600;2024-02-21T04:12:29;24.33;;;10.65;;
70199;SDS011;57587;55.688;37.600;2024-02-21T04:14:56;21.47;;;10.40;;
70199;SDS011;57587;55.688;37.600;2024-02-21T04:17:23;19.85;;;9.13;;
70199;SDS011;57587;55.688;37.600;2024-02-21T04:19:50;21.60;;;11.05;;
70199;SDS011;57587;55.688;37.600;2024-02-21T04:22:29;15.57;;;8.15;;
70199;SDS011;57587;55.688;37.600;2024-02-21T04:24:56;15.85;;;9.57;;
70199;SDS011;57587;55.688;37.600;2024-02-21T04:27:23;17.40;;;9.50;;
70199;SDS011;57587;55.688;37.600;2024-02-21T04:29:50;19.95;;;10.35;;
70199;SDS011;57587;55.688;37.600;2024-02-21T04:32:17;13.90;;;7.75;;
70199;SDS011;57587;55.688;37.600;2024-02-21T04:34:45;17.95;;;9.45;;
70199;SDS011;57587;55.688;37.600;2024-02-21T04:37:12;23.20;;;10.52;;
70199;SDS011;57587;55.688;37.600;2024-02-21T04:39:39;19.83;;;10.17;;
70199;SDS011;57587;55.688;37.600;2024-02-21T04:42:06;18.25;;;9.65;;
70199;SDS011;57587;55.688;37.600;2024-02-21T04:44:33;17.33;;;8.57;;
70199;SDS011;57587;55.688;37.600;2024-02-21T04:47:01;17.08;;;10.02;;
70199;SDS011;57587;55.688;37.600;2024-02-21T04:49:30;14.45;;;9.18;;
70199;SDS011;57587;55.688;37.600;2024-02-21T04:51:57;24.17;;;9.93;;
70199;SDS011;57587;55.688;37.600;2024-02-21T04:54:24;18.30;;;9.48;;
70199;SDS011;57587;55.688;37.600;2024-02-21T04:56:52;21.25;;;9.68;;
70199;SDS011;57587;55.688;37.600;2024-02-21T04:59:19;17.90;;;8.90;;
70199;SDS011;57587;55.688;37.600;2024-02-21T05:01:46;25.63;;;10.18;;
70199;SDS011;57587;55.688;37.600;2024-02-21T05:04:14;18.77;;;8.47;;
70199;SDS011;57587;55.688;37.600;2024-02-21T05:06:41;20.27;;;10.68;;
70199;SDS011;57587;55.688;37.600;2024-02-21T05:09:09;19.90;;;10.55;;
70199;SDS011;57587;55.688;37.600;2024-02-21T05:11:37;18.83;;;10.90;;
70199;SDS011;57587;55.688;37.600;2024-02-21T05:14:06;20.10;;;10.90;;
70199;SDS011;57587;55.688;37.600;2024-02-21T05:16:34;17.97;;;10.03;;
70199;SDS011;57587;55.688;37.600;2024-02-21T05:19:01;17.98;;;10.18;;
70199;SDS011;57587;55.688;37.600;2024-02-21T05:21:29;19.02;;;11.20;;
70199;SDS011;57587;55.688;37.600;2024-02-21T05:23:57;22.05;;;11.02;;
70199;SDS011;57587;55.688;37.600;2024-02-21T05:26:24;20.90;;;10.75;;
70199;SDS011;57587;55.688;37.600;2024-02-21T05:28:52;19.50;;;9.60;;
70199;SDS011;57587;55.688;37.600;2024-02-21T05:31:20;20.30;;;12.07;;
70199;SDS011;57587;55.688;37.600;2024-02-21T05:33:48;24.77;;;11.63;;
70199;SDS011;57587;55.688;37.600;2024-02-21T05:36:15;19.05;;;10.70;;
70199;SDS011;57587;55.688;37.600;2024-02-21T05:38:42;24.70;;;10.80;;
70199;SDS011;57587;55.688;37.600;2024-02-21T05:41:09;24.40;;;10.43;;
70199;SDS011;57587;55.688;37.600;2024-02-21T05:43:38;17.80;;;9.45;;
70199;SDS011;57587;55.688;37.600;2024-02-21T05:46:05;19.70;;;10.60;;
70199;SDS011;57587;55.688;37.600;2024-02-21T05:48:32;14.10;;;8.57;;
70199;SDS011;57587;55.688;37.600;2024-02-21T05:51:05;24.33;;;10.70;;
70199;SDS011;57587;55.688;37.600;2024-02-21T05:53:32;19.03;;;10.80;;
70199;SDS011;57587;55.688;37.600;2024-02-21T05:55:59;15.23;;;9.27;;
70199;SDS011;57587;55.688;37.600;2024-02-21T05:58:26;18.15;;;9.95;;
70199;SDS011;57587;55.688;37.600;2024-02-21T06:00:54;21.50;;;10.63;;
70199;SDS011;57587;55.688;37.600;2024-02-21T06:03:21;14.35;;;8.43;;
70199;SDS011;57587;55.688;37.600;2024-02-21T06:05:48;19.77;;;11.10;;
70199;SDS011;57587;55.688;37.600;2024-02-21T06:08:15;19.05;;;10.88;;
70199;SDS011;57587;55.688;37.600;2024-02-21T06:10:42;20.42;;;11.68;;
70199;SDS011;57587;55.688;37.600;2024-02-21T06:13:09;21.55;;;11.15;;
70199;SDS011;57587;55.688;37.600;2024-02-21T06:15:36;17.45;;;11.20;;
70199;SDS011;57587;55.688;37.600;2024-02-21T06:18:03;23.13;;;9.33;;
70199;SDS011;57587;55.688;37.600;2024-02-21T06:20:31;21.55;;;8.77;;
70199;SDS011;57587;55.688;37.600;2024-02-21T06:22:58;20.30;;;10.68;;
70199;SDS011;57587;55.688;37.600;2024-02-21T06:25:25;17.23;;;8.75;;
70199;SDS011;57587;55.688;37.600;2024-02-21T06:27:53;22.15;;;10.13;;
70199;SDS011;57587;55.688;37.600;2024-02-21T06:30:20;18.77;;;9.53;;
70199;SDS011;57587;55.688;37.600;2024-02-21T06:32:47;23.85;;;9.95;;
70199;SDS011;57587;55.688;37.600;2024-02-21T06:35:14;22.13;;;10.85;;
70199;SDS011;57587;55.688;37.600;2024-02-21T06:37:41;20.70;;;10.63;;
70199;SDS011;57587;55.688;37.600;2024-02-21T06:40:08;21.50;;;9.65;;
70199;SDS011;57587;55.688;37.600;2024-02-21T06:42:36;17.33;;;9.53;;
70199;SDS011;57587;55.688;37.600;2024-02-21T06:45:06;19.00;;;9.75;;
70199;SDS011;57587;55.688;37.600;2024-02-21T06:47:33;22.90;;;10.18;;
70199;SDS011;57587;55.688;37.600;2024-02-21T06:50:00;22.27;;;11.05;;
70199;SDS011;57587;55.688;37.600;2024-02-21T06:52:29;22.67;;;11.02;;
70199;SDS011;57587;55.688;37.600;2024-02-21T06:54:57;21.37;;;10.40;;
70199;SDS011;57587;55.688;37.600;2024-02-21T06:57:25;20.13;;;10.48;;
70199;SDS011;57587;55.688;37.600;2024-02-21T06:59:54;22.35;;;9.45;;
70199;SDS011;57587;55.688;37.600;2024-02-21T07:02:24;21.75;;;11.30;;
70199;SDS011;57587;55.688;37.600;2024-02-21T07:04:51;19.30;;;10.07;;
70199;SDS011;57587;55.688;37.600;2024-02-21T07:07:19;21.07;;;10.63;;
70199;SDS011;57587;55.688;37.600;2024-02-21T07:09:46;16.85;;;10.05;;
70199;SDS011;57587;55.688;37.600;2024-02-21T07:12:15;21.45;;;10.20;;
70199;SDS011;57587;55.688;37.600;2024-02-21T07:14:44;18.38;;;8.60;;
70199;SDS011;57587;55.688;37.600;2024-02-21T07:17:11;19.85;;;9.95;;
70199;SDS011;57587;55.688;37.600;2024-02-21T07:19:39;24.83;;;9.20;;
70199;SDS011;57587;55.688;37.600;2024-02-21T07:22:06;22.58;;;9.77;;
70199;SDS011;57587;55.688;37.600;2024-02-21T07:24:33;20.40;;;11.15;;
70199;SDS011;57587;55.688;37.600;2024-02-21T07:27:00;21.25;;;9.85;;
70199;SDS011;57587;55.688;37.600;2024-02-21T07:29:31;22.50;;;10.77;;
70199;SDS011;57587;55.688;37.600;2024-02-21T07:32:02;20.53;;;11.43;;
70199;SDS011;57587;55.688;37.600;2024-02-21T07:34:29;21.80;;;10.18;;
70199;SDS011;57587;55.688;37.600;2024-02-21T07:36:57;21.33;;;10.80;;
70199;SDS011;57587;55.688;37.600;2024-02-21T07:39:24;19.35;;;9.80;;
70199;SDS011;57587;55.688;37.600;2024-02-21T07:42:00;18.75;;;10.48;;
70199;SDS011;57587;55.688;37.600;2024-02-21T07:44:28;19.10;;;9.93;;
70199;SDS011;57587;55.688;37.600;2024-02-21T07:46:56;18.85;;;10.82;;
70199;SDS011;57587;55.688;37.600;2024-02-21T07:49:23;18.73;;;11.43;;
70199;SDS011;57587;55.688;37.600;2024-02-21T07:51:51;18.35;;;11.18;;
70199;SDS011;57587;55.688;37.600;2024-02-21T07:54:19;21.63;;;11.38;;
70199;SDS011;57587;55.688;37.600;2024-02-21T07:56:47;20.20;;;11.77;;
70199;SDS011;57587;55.688;37.600;2024-02-21T07:59:14;21.20;;;11.90;;
70199;SDS011;57587;55.688;37.600;2024-02-21T08:01:41;20.55;;;12.80;;
70199;SDS011;57587;55.688;37.600;2024-02-21T08:04:11;18.42;;;11.45;;
70199;SDS011;57587;55.688;37.600;2024-02-21T08:06:39;20.15;;;12.25;;
70199;SDS011;57587;55.688;37.600;2024-02-21T08:09:06;21.70;;;12.83;;
70199;SDS011;57587;55.688;37.600;2024-02-21T08:11:33;21.13;;;12.05;;
70199;SDS011;57587;55.688;37.600;2024-02-21T08:14:00;19.70;;;12.18;;
70199;SDS011;57587;55.688;37.600;2024-02-21T08:16:28;21.90;;;13.48;;
70199;SDS011;57587;55.688;37.600;2024-02-21T08:18:55;19.73;;;11.77;;
70199;SDS011;57587;55.688;37.600;2024-02-21T08:21:23;20.33;;;13.53;;
70199;SDS011;57587;55.688;37.600;2024-02-21T08:23:50;19.70;;;12.40;;
70199;SDS011;57587;55.688;37.600;2024-02-21T08:26:20;22.38;;;14.13;;
70199;SDS011;57587;55.688;37.600;2024-02-21T08:28:47;20.17;;;14.07;;
70199;SDS011;57587;55.688;37.600;2024-02-21T08:31:18;22.15;;;12.57;;
70199;SDS011;57587;55.688;37.600;2024-02-21T08:33:46;20.83;;;12.07;;
70199;SDS011;57587;55.688;37.600;2024-02-21T08:36:17;19.83;;;13.07;;
70199;SDS011;57587;55.688;37.600;2024-02-21T08:38:48;21.75;;;13.90;;
70199;SDS011;57587;55.688;37.600;2024-02-21T08:41:15;21.50;;;12.48;;
70199;SDS011;57587;55.688;37.600;2024-02-21T08:43:43;19.38;;;12.48;;
70199;SDS011;57587;55.688;37.600;2024-02-21T08:46:10;19.20;;;12.77;;
70199;SDS011;57587;55.688;37.600;2024-02-21T08:48:37;22.98;;;13.35;;
70199;SDS011;57587;55.688;37.600;2024-02-21T08:51:06;23.42;;;13.13;;
70199;SDS011;57587;55.688;37.600;2024-02-21T08:53:33;20.70;;;12.35;;
70199;SDS011;57587;55.688;37.600;2024-02-21T08:56:01;22.13;;;12.85;;
70199;SDS011;57587;55.688;37.600;2024-02-21T08:58:30;23.20;;;13.10;;
70199;SDS011;57587;55.688;37.600;2024-02-21T09:01:00;24.00;;;11.85;;
70199;SDS011;57587;55.688;37.600;2024-02-21T09:03:27;23.40;;;10.77;;
70199;SDS011;57587;55.688;37.600;2024-02-21T09:05:55;23.38;;;12.90;;
70199;SDS011;57587;55.688;37.600;2024-02-21T09:08:22;22.45;;;11.35;;
70199;SDS011;57587;55.688;37.600;2024-02-21T09:10:50;20.63;;;11.83;;
70199;SDS011;57587;55.688;37.600;2024-02-21T09:13:18;19.40;;;11.77;;
70199;SDS011;57587;55.688;37.600;2024-02-21T09:15:45;22.85;;;12.93;;
70199;SDS011;57587;55.688;37.600;2024-02-21T09:18:12;20.15;;;12.30;;
70199;SDS011;57587;55.688;37.600;2024-02-21T09:20:39;19.40;;;12.02;;
70199;SDS011;57587;55.688;37.600;2024-02-21T09:23:06;18.37;;;11.30;;
70199;SDS011;57587;55.688;37.600;2024-02-21T09:25:33;16.38;;;10.07;;
70199;SDS011;57587;55.688;37.600;2024-02-21T09:28:01;21.95;;;12.15;;
70199;SDS011;57587;55.688;37.600;2024-02-21T09:30:29;22.33;;;11.27;;
70199;SDS011;57587;55.688;37.600;2024-02-21T09:32:59;22.75;;;11.63;;
70199;SDS011;57587;55.688;37.600;2024-02-21T09:35:28;21.13;;;10.97;;
70199;SDS011;57587;55.688;37.600;2024-02-21T09:37:55;25.05;;;10.38;;
70199;SDS011;57587;55.688;37.600;2024-02-21T09:40:22;21.70;;;10.57;;
70199;SDS011;57587;55.688;37.600;2024-02-21T09:42:50;22.92;;;11.15;;
70199;SDS011;57587;55.688;37.600;2024-02-21T09:45:35;18.20;;;10.13;;
70199;SDS011;57587;55.688;37.600;2024-02-21T09:50:35;23.63;;;11.98;;
70199;SDS011;57587;55.688;37.600;2024-02-21T09:53:04;25.85;;;11.30;;
70199;SDS011;57587;55.688;37.600;2024-02-21T09:55:33;20.80;;;9.55;;
70199;SDS011;57587;55.688;37.600;2024-02-21T09:58:04;14.50;;;8.25;;
70199;SDS011;57587;55.688;37.600;2024-02-21T10:00:42;17.37;;;9.17;;
70199;SDS011;57587;55.688;37.600;2024-02-21T10:03:10;19.85;;;10.77;;
70199;SDS011;57587;55.688;37.600;2024-02-21T10:05:37;16.75;;;9.10;;
70199;SDS011;57587;55.688;37.600;2024-02-21T10:08:05;21.30;;;10.13;;
70199;SDS011;57587;55.688;37.600;2024-02-21T10:10:50;15.65;;;9.90;;
70199;SDS011;57587;55.688;37.600;2024-02-21T10:13:27;19.63;;;9.30;;
70199;SDS011;57587;55.688;37.600;2024-02-21T10:16:05;17.75;;;9.07;;
70199;SDS011;57587;55.688;37.600;2024-02-21T10:18:35;20.38;;;10.27;;
70199;SDS011;57587;55.688;37.600;2024-02-21T10:21:03;17.02;;;9.05;;
70199;SDS011;57587;55.688;37.600;2024-02-21T10:23:44;17.48;;;9.90;;
70199;SDS011;57587;55.688;37.600;2024-02-21T10:26:12;17.43;;;8.73;;
70199;SDS011;57587;55.688;37.600;2024-02-21T10:28:41;15.88;;;9.55;;
70199;SDS011;57587;55.688;37.600;2024-02-21T10:31:25;15.65;;;8.65;;
70199;SDS011;57587;55.688;37.600;2024-02-21T10:33:54;18.00;;;8.27;;
70199;SDS011;57587;55.688;37.600;2024-02-21T10:36:23;18.58;;;9.30;;
70199;SDS011;57587;55.688;37.600;2024-02-21T10:38:54;16.20;;;9.77;;
70199;SDS011;57587;55.688;37.600;2024-02-21T10:41:22;20.02;;;10.02;;
70199;SDS011;57587;55.688;37.600;2024-02-21T10:43:51;15.13;;;9.10;;
70199;SDS011;57587;55.688;37.600;2024-02-21T10:46:23;16.38;;;7.80;;
70199;SDS011;57587;55.688;37.600;2024-02-21T10:49:04;14.40;;;8.00;;
70199;SDS011;57587;55.688;37.600;2024-02-21T10:51:37;10.87;;;6.20;;
70199;SDS011;57587;55.688;37.600;2024-02-21T10:56:39;22.38;;;9.95;;
70199;SDS011;57587;55.688;37.600;2024-02-21T10:59:11;12.77;;;7.80;;
70199;SDS011;57587;55.688;37.600;2024-02-21T11:01:40;14.00;;;8.07;;
70199;SDS011;57587;55.688;37.600;2024-02-21T11:04:08;18.57;;;8.67;;
70199;SDS011;57587;55.688;37.600;2024-02-21T11:06:39;15.75;;;8.35;;
70199;SDS011;57587;55.688;37.600;2024-02-21T11:09:09;17.05;;;8.88;;
70199;SDS011;57587;55.688;37.600;2024-02-21T11:11:38;13.32;;;7.60;;
70199;SDS011;57587;55.688;37.600;2024-02-21T11:14:11;20.38;;;9.05;;
70199;SDS011;57587;55.688;37.600;2024-02-21T11:16:45;13.53;;;7.93;;
70199;SDS011;57587;55.688;37.600;2024-02-21T11:19:19;18.30;;;9.77;;
70199;SDS011;57587;55.688;37.600;2024-02-21T11:21:48;16.58;;;8.75;;
70199;SDS011;57587;55.688;37.600;2024-02-21T11:27:13;17.05;;;9.68;;
70199;SDS011;57587;55.688;37.600;2024-02-21T11:29:45;16.50;;;9.07;;
70199;SDS011;57587;55.688;37.600;2024-02-21T11:32:19;20.55;;;10.38;;
70199;SDS011;57587;55.688;37.600;2024-02-21T11:34:57;14.73;;;8.68;;
70199;SDS011;57587;55.688;37.600;2024-02-21T11:37:35;15.25;;;8.45;;
70199;SDS011;57587;55.688;37.600;2024-02-21T11:40:07;17.33;;;8.68;;
70199;SDS011;57587;55.688;37.600;2024-02-21T11:42:39;12.03;;;7.13;;
70199;SDS011;57587;55.688;37.600;2024-02-21T11:45:06;13.05;;;7.70;;
70199;SDS011;57587;55.688;37.600;2024-02-21T11:47:38;14.70;;;7.90;;
70199;SDS011;57587;55.688;37.600;2024-02-21T11:50:11;15.10;;;8.05;;
70199;SDS011;57587;55.688;37.600;2024-02-21T11:52:41;15.50;;;7.68;;
70199;SDS011;57587;55.688;37.600;2024-02-21T11:55:08;14.93;;;7.90;;
70199;SDS011;57587;55.688;37.600;2024-02-21T11:57:37;12.48;;;7.63;;
70199;SDS011;57587;55.688;37.600;2024-02-21T12:00:12;13.27;;;7.95;;
70199;SDS011;57587;55.688;37.600;2024-02-21T12:02:41;15.80;;;7.93;;
70199;SDS011;57587;55.688;37.600;2024-02-21T12:05:09;14.27;;;8.63;;
70199;SDS011;57587;55.688;37.600;2024-02-21T12:07:39;12.63;;;6.60;;
70199;SDS011;57587;55.688;37.600;2024-02-21T12:10:08;14.98;;;8.18;;
70199;SDS011;57587;55.688;37.600;2024-02-21T12:12:37;12.93;;;8.70;;
70199;SDS011;57587;55.688;37.600;2024-02-21T12:15:04;14.68;;;7.45;;
70199;SDS011;57587;55.688;37.600;2024-02-21T12:17:32;16.35;;;8.23;;
70199;SDS011;57587;55.688;37.600;2024-02-21T12:20:02;16.03;;;9.63;;
70199;SDS011;57587;55.688;37.600;2024-02-21T12:22:32;17.63;;;8.85;;
70199;SDS011;57587;55.688;37.600;2024-02-21T12:25:02;13.77;;;8.57;;
70199;SDS011;57587;55.688;37.600;2024-02-21T12:27:30;17.42;;;9.90;;
70199;SDS011;57587;55.688;37.600;2024-02-21T12:29:57;14.05;;;7.55;;
70199;SDS011;57587;55.688;37.600;2024-02-21T12:32:24;14.03;;;8.40;;
70199;SDS011;57587;55.688;37.600;2024-02-21T12:34:51;14.32;;;8.85;;
70199;SDS011;57587;55.688;37.600;2024-02-21T12:37:21;12.20;;;7.85;;
70199;SDS011;57587;55.688;37.600;2024-02-21T12:39:49;18.98;;;9.48;;
70199;SDS011;57587;55.688;37.600;2024-02-21T12:42:16;15.63;;;9.48;;
70199;SDS011;57587;55.688;37.600;2024-02-21T12:44:44;14.17;;;8.63;;
70199;SDS011;57587;55.688;37.600;2024-02-21T12:47:11;15.73;;;9.20;;
70199;SDS011;57587;55.688;37.600;2024-02-21T12:49:38;16.73;;;9.52;;
70199;SDS011;57587;55.688;37.600;2024-02-21T12:52:11;10.77;;;6.60;;
70199;SDS011;57587;55.688;37.600;2024-02-21T12:54:40;15.07;;;7.47;;
70199;SDS011;57587;55.688;37.600;2024-02-21T12:57:10;18.80;;;8.20;;
70199;SDS011;57587;55.688;37.600;2024-02-21T12:59:37;14.88;;;8.77;;
70199;SDS011;57587;55.688;37.600;2024-02-21T13:02:04;18.65;;;9.90;;
70199;SDS011;57587;55.688;37.600;2024-02-21T13:04:33;12.57;;;7.10;;
70199;SDS011;57587;55.688;37.600;2024-02-21T13:07:02;15.68;;;8.20;;
70199;SDS011;57587;55.688;37.600;2024-02-21T13:09:29;14.83;;;8.47;;
70199;SDS011;57587;55.688;37.600;2024-02-21T13:11:56;18.95;;;8.13;;
70199;SDS011;57587;55.688;37.600;2024-02-21T13:14:24;16.83;;;8.30;;
70199;SDS011;57587;55.688;37.600;2024-02-21T13:16:51;15.38;;;8.73;;
70199;SDS011;57587;55.688;37.600;2024-02-21T13:19:18;16.70;;;8.50;;
70199;SDS011;57587;55.688;37.600;2024-02-21T13:21:45;17.40;;;8.83;;
70199;SDS011;57587;55.688;37.600;2024-02-21T13:24:13;16.05;;;8.02;;
70199;SDS011;57587;55.688;37.600;2024-02-21T13:26:40;14.63;;;8.45;;
70199;SDS011;57587;55.688;37.600;2024-02-21T13:29:07;11.80;;;6.18;;
70199;SDS011;57587;55.688;37.600;2024-02-21T13:31:34;26.30;;;9.13;;
70199;SDS011;57587;55.688;37.600;2024-02-21T13:34:01;16.17;;;7.87;;
70199;SDS011;57587;55.688;37.600;2024-02-21T13:36:30;12.13;;;6.60;;
70199;SDS011;57587;55.688;37.600;2024-02-21T13:39:00;10.73;;;6.88;;
70199;SDS011;57587;55.688;37.600;2024-02-21T13:41:27;17.65;;;8.40;;
70199;SDS011;57587;55.688;37.600;2024-02-21T13:43:54;16.10;;;8.30;;
70199;SDS011;57587;55.688;37.600;2024-02-21T13:46:21;16.53;;;7.67;;
70199;SDS011;57587;55.688;37.600;2024-02-21T13:48:48;18.13;;;8.82;;
70199;SDS011;57587;55.688;37.600;2024-02-21T13:51:19;21.40;;;8.75;;
70199;SDS011;57587;55.688;37.600;2024-02-21T13:53:46;13.02;;;7.28;;
70199;SDS011;57587;55.688;37.600;2024-02-21T13:56:15;16.30;;;7.80;;
70199;SDS011;57587;55.688;37.600;2024-02-21T13:58:48;11.13;;;7.03;;
70199;SDS011;57587;55.688;37.600;2024-02-21T14:01:15;13.98;;;8.07;;
70199;SDS011;57587;55.688;37.600;2024-02-21T14:03:42;15.38;;;9.15;;
70199;SDS011;57587;55.688;37.600;2024-02-21T14:06:09;14.30;;;7.68;;
70199;SDS011;57587;55.688;37.600;2024-02-21T14:08:37;15.13;;;7.95;;
70199;SDS011;57587;55.688;37.600;2024-02-21T14:11:06;15.50;;;8.47;;
70199;SDS011;57587;55.688;37.600;2024-02-21T14:13:34;16.50;;;8.57;;
70199;SDS011;57587;55.688;37.600;2024-02-21T14:16:01;16.85;;;9.82;;
70199;SDS011;57587;55.688;37.600;2024-02-21T14:18:29;15.95;;;8.40;;
70199;SDS011;57587;55.688;37.600;2024-02-21T14:20:56;15.00;;;8.50;;
70199;SDS011;57587;55.688;37.600;2024-02-21T14:23:23;16.53;;;8.40;;
70199;SDS011;57587;55.688;37.600;2024-02-21T14:25:50;14.90;;;8.65;;
70199;SDS011;57587;55.688;37.600;2024-02-21T14:28:17;18.65;;;8.18;;
70199;SDS011;57587;55.688;37.600;2024-02-21T14:30:47;17.05;;;7.38;;